Time;durP1;ratioP1;P1;durP2;ratioP2;P2;SDS_P1;SDS_P2;PMS_P1;PMS_P2;Temp;Humidity;BMP_temperature;BMP_pressure;BME280_temperature;BME280_humidity;BME280_pressure;Samples;Min_cycle;Max_cycle;Signal;HPM_P1;HPM_P2
2022/12/08 00:01:22;;;;;;;;;;;;;;;4.41;53.37;99241.91;5003975;28;20319;-76
2022/12/08 00:03:47;;;;;;;;;;;;;;;4.22;53.72;99240.25;5004289;28;19922;-76
2022/12/08 00:09:22;;;;;;;;;;;;;;;4.40;53.10;99251.25;5004703;28;19933;-76
2022/12/08 00:11:58;;;;;;;;;;;;;;;4.18;54.32;99253.00;5005596;28;19929;-76
2022/12/08 00:14:26;;;;;;;;;;;;;;;4.40;53.84;99275.88;5004179;28;20417;-76
2022/12/08 00:16:52;;;;;;;;;;;;;;;4.50;53.87;99286.94;5005324;28;19917;-76
2022/12/08 00:19:17;;;;;;;;;;;;;;;4.23;55.09;99267.44;5003588;28;19952;-76
2022/12/08 00:21:42;;;;;;;;;;;;;;;4.86;53.44;99303.81;5004646;28;20349;-76
2022/12/08 00:24:07;;;;;;;;;;;;;;;4.59;54.89;99275.00;5005068;28;19948;-76
2022/12/08 00:26:33;;;;;;;;;;;;;;;4.43;55.17;99265.69;5003296;28;19944;-76
2022/12/08 00:28:58;;;;;;;;;;;;;;;4.72;53.69;99272.38;5004828;28;20366;-76
2022/12/08 00:31:23;;;;;;;;;;;;;;;5.03;53.14;99289.25;5005383;28;20387;-76
2022/12/08 00:33:48;;;;;;;;;;;;;;;4.94;53.16;99263.78;5005247;28;19921;-76
2022/12/08 00:36:14;;;;;;;;;;;;;;;4.78;53.58;99244.28;5004408;28;19932;-76
2022/12/08 00:38:39;;;;;;;;;;;;;;;5.07;51.93;99241.59;5004014;28;19964;-76
2022/12/08 00:41:11;;;;;;;;;;;;;;;4.83;52.12;99217.06;5004809;28;19917;-77
2022/12/08 00:43:36;;;;;;;;;;;;;;;4.90;51.34;99200.00;5005106;28;19968;-76
2022/12/08 00:46:01;;;;;;;;;;;;;;;4.83;51.46;99181.31;5004067;28;20338;-76
2022/12/08 00:48:26;;;;;;;;;;;;;;;4.73;51.79;99160.13;5004562;28;20275;-77
2022/12/08 00:50:52;;;;;;;;;;;;;;;5.09;50.46;99175.22;5005285;28;19922;-76
2022/12/08 00:53:17;;;;;;;;;;;;;;;4.94;50.86;99153.19;5008004;28;20906;-76
2022/12/08 00:55:42;;;;;;;;;;;;;;;5.05;50.43;99153.13;5007200;28;19971;-76
2022/12/08 00:58:07;;;;;;;;;;;;;;;4.98;51.34;99137.84;5007250;28;19924;-76
2022/12/08 01:00:33;;;;;;;;;;;;;;;5.08;51.09;99140.34;5006814;28;19917;-76
2022/12/08 01:02:58;;;;;;;;;;;;;;;4.95;52.19;99127.69;5007560;28;19928;-76
2022/12/08 01:05:23;;;;;;;;;;;;;;;4.82;52.31;99108.19;5007543;28;19918;-76
2022/12/08 01:07:48;;;;;;;;;;;;;;;4.88;51.94;99108.16;5007028;28;20023;-76
2022/12/08 01:10:14;;;;;;;;;;;;;;;4.90;51.72;99114.06;5005416;28;20013;-76
2022/12/08 01:12:39;;;;;;;;;;;;;;;4.85;51.61;99107.31;5007182;28;19956;-76
2022/12/08 01:15:04;;;;;;;;;;;;;;;5.12;50.47;99124.97;5007300;28;20379;-76
2022/12/08 01:17:30;;;;;;;;;;;;;;;5.17;50.71;99120.69;5006989;28;20000;-76
2022/12/08 01:19:55;;;;;;;;;;;;;;;5.30;50.50;99124.00;5006862;28;19923;-76
2022/12/08 01:22:20;;;;;;;;;;;;;;;5.05;52.54;99096.97;5006951;28;20331;-76
2022/12/08 01:24:45;;;;;;;;;;;;;;;4.61;54.63;99074.34;5005023;28;19917;-76
2022/12/08 01:27:11;;;;;;;;;;;;;;;4.84;52.91;99083.53;5006569;28;19961;-76
2022/12/08 01:29:36;;;;;;;;;;;;;;;4.65;53.45;99094.69;5006457;28;20263;-77
2022/12/08 01:32:01;;;;;;;;;;;;;;;5.01;51.24;99117.41;5006739;28;20952;-76
2022/12/08 01:34:26;;;;;;;;;;;;;;;5.11;50.83;99124.97;5006565;28;20002;-76
2022/12/08 01:36:51;;;;;;;;;;;;;;;4.90;52.29;99116.63;5006989;28;19924;-76
2022/12/08 01:39:17;;;;;;;;;;;;;;;4.71;52.30;99113.38;5006473;28;19921;-76
2022/12/08 01:41:43;;;;;;;;;;;;;;;4.41;53.72;99114.41;5006794;28;20038;-76
2022/12/08 01:44:11;;;;;;;;;;;;;;;4.41;52.42;99127.16;5005348;28;19967;-76
2022/12/08 01:46:40;;;;;;;;;;;;;;;4.59;51.69;99149.16;5006336;28;19917;-76
2022/12/08 01:49:11;;;;;;;;;;;;;;;4.61;51.68;99167.88;5006005;28;19964;-76
2022/12/08 01:52:10;;;;;;;;;;;;;;;4.79;50.87;99184.78;5006556;28;19979;-76
2022/12/08 01:54:38;;;;;;;;;;;;;;;4.74;51.54;99196.69;4930371;28;1837644;-76
2022/12/08 01:57:08;;;;;;;;;;;;;;;4.57;52.01;99192.53;5006441;28;20016;-76
2022/12/08 01:59:34;;;;;;;;;;;;;;;4.74;51.31;99209.44;5005434;28;20012;-76
2022/12/08 02:01:59;;;;;;;;;;;;;;;4.78;51.27;99206.03;5005974;28;19921;-76
2022/12/08 02:04:25;;;;;;;;;;;;;;;4.67;51.82;99197.59;5007158;28;19914;-76
2022/12/08 02:06:50;;;;;;;;;;;;;;;4.45;52.89;99181.53;5006980;28;19925;-76
2022/12/08 02:09:15;;;;;;;;;;;;;;;4.99;50.60;99210.16;5006377;28;19924;-76
2022/12/08 02:11:40;;;;;;;;;;;;;;;4.53;53.36;99174.69;5005873;28;19922;-76
2022/12/08 02:14:07;;;;;;;;;;;;;;;4.67;51.72;99183.13;5007177;28;19926;-76
2022/12/08 02:16:32;;;;;;;;;;;;;;;4.55;52.44;99178.09;5005691;28;19921;-76
2022/12/08 02:19:06;;;;;;;;;;;;;;;4.60;51.78;99177.19;5006852;28;19933;-76
2022/12/08 02:21:50;;;;;;;;;;;;;;;4.43;52.45;99176.44;5006829;28;19922;-76
2022/12/08 02:24:22;;;;;;;;;;;;;;;4.66;52.11;99195.91;5007065;28;20059;-76
2022/12/08 02:27:05;;;;;;;;;;;;;;;4.56;52.91;99190.84;4994294;28;20013;-76
2022/12/08 02:29:33;;;;;;;;;;;;;;;4.27;53.57;99172.28;5006279;28;20004;-76
2022/12/08 02:32:02;;;;;;;;;;;;;;;4.45;53.16;99184.94;5005296;28;20371;-76
2022/12/08 02:34:30;;;;;;;;;;;;;;;4.26;53.85;99173.94;5006591;28;20426;-76
2022/12/08 02:37:14;;;;;;;;;;;;;;;3.91;54.68;99153.69;5006663;28;19939;-77
2022/12/08 02:39:45;;;;;;;;;;;;;;;4.19;53.59;99175.66;5006272;28;19921;-76
2022/12/08 02:42:11;;;;;;;;;;;;;;;4.52;53.15;99188.31;5005396;28;20315;-76
2022/12/08 02:44:40;;;;;;;;;;;;;;;5.18;50.70;99213.47;5005435;28;19920;-76
2022/12/08 02:47:15;;;;;;;;;;;;;;;4.61;52.57;99157.66;5004931;28;20498;-77
2022/12/08 02:49:41;;;;;;;;;;;;;;;4.50;53.50;99132.19;5005142;28;19918;-77
2022/12/08 02:52:07;;;;;;;;;;;;;;;4.63;52.77;99134.69;5006323;28;19952;-76
2022/12/08 02:54:32;;;;;;;;;;;;;;;4.75;50.84;99127.81;5006061;28;19948;-76
2022/12/08 02:57:06;;;;;;;;;;;;;;;4.71;51.68;99108.28;5005213;28;19925;-76
2022/12/08 02:59:39;;;;;;;;;;;;;;;4.49;52.81;99091.41;5005969;28;19917;-76
2022/12/08 03:02:16;;;;;;;;;;;;;;;4.52;52.91;99093.94;5004907;28;19914;-77
2022/12/08 03:04:45;;;;;;;;;;;;;;;4.65;51.91;99093.00;5005290;28;20288;-76
2022/12/08 03:07:22;;;;;;;;;;;;;;;4.92;50.45;99091.13;5005668;28;20380;-76
2022/12/08 03:09:54;;;;;;;;;;;;;;;4.99;49.79;99085.94;5005921;28;19928;-76
2022/12/08 03:12:20;;;;;;;;;;;;;;;4.96;50.65;99057.06;5004684;28;20442;-76
2022/12/08 03:14:49;;;;;;;;;;;;;;;4.70;52.70;99031.75;5004885;28;19917;-76
2022/12/08 03:17:14;;;;;;;;;;;;;;;5.02;51.16;99028.94;5004290;28;19921;-77
2022/12/08 03:19:40;;;;;;;;;;;;;;;4.72;53.35;98996.88;5003852;28;19918;-76
2022/12/08 03:22:05;;;;;;;;;;;;;;;4.89;52.66;99000.13;5005495;28;19913;-76
2022/12/08 03:24:31;;;;;;;;;;;;;;;5.12;51.71;99001.63;5005025;28;19920;-76
2022/12/08 03:27:02;;;;;;;;;;;;;;;4.78;54.06;98981.50;5003932;28;19925;-76
2022/12/08 03:29:27;;;;;;;;;;;;;;;5.29;52.09;98978.44;5004239;28;20709;-76
2022/12/08 03:31:53;;;;;;;;;;;;;;;4.77;56.05;98949.22;5004516;28;19963;-76
2022/12/08 03:34:18;;;;;;;;;;;;;;;4.86;54.99;98933.81;4991001;28;19924;-76
2022/12/08 03:36:44;;;;;;;;;;;;;;;4.73;55.93;98937.34;5004483;28;19966;-76
2022/12/08 03:39:09;;;;;;;;;;;;;;;5.08;54.07;98948.91;5003987;28;21226;-76
2022/12/08 03:41:34;;;;;;;;;;;;;;;5.13;54.95;98939.47;5004477;28;20012;-77
2022/12/08 03:43:59;;;;;;;;;;;;;;;4.86;57.08;98913.41;5005791;28;19922;-77
2022/12/08 03:46:26;;;;;;;;;;;;;;;4.60;58.26;98896.63;5003567;28;19917;-76
2022/12/08 03:48:51;;;;;;;;;;;;;;;4.41;58.52;98890.03;5003438;28;20369;-76
2022/12/08 03:51:16;;;;;;;;;;;;;;;4.74;56.56;98905.84;5005248;28;19925;-76
2022/12/08 03:53:42;;;;;;;;;;;;;;;4.82;56.74;98902.38;5003770;28;20299;-76
2022/12/08 03:56:14;;;;;;;;;;;;;;;4.34;59.18;98883.28;5003818;28;20284;-76
2022/12/08 03:58:40;;;;;;;;;;;;;;;4.26;59.11;98882.50;5003359;28;19917;-76
2022/12/08 04:01:05;;;;;;;;;;;;;;;4.96;55.19;98909.03;5004910;28;20071;-76
2022/12/08 04:03:30;;;;;;;;;;;;;;;5.17;54.98;98907.94;5005117;28;19913;-76
2022/12/08 04:05:55;;;;;;;;;;;;;;;5.14;55.86;98897.78;5005316;28;20019;-76
2022/12/08 04:08:21;;;;;;;;;;;;;;;4.88;58.41;98875.97;5005039;28;19913;-77
2022/12/08 04:10:46;;;;;;;;;;;;;;;5.32;56.83;98886.50;5004440;28;19917;-76
2022/12/08 04:13:11;;;;;;;;;;;;;;;4.80;60.07;98852.22;5004162;28;19938;-76
2022/12/08 04:15:36;;;;;;;;;;;;;;;4.98;58.86;98856.28;5004955;28;19925;-76
2022/12/08 04:18:01;;;;;;;;;;;;;;;5.28;57.53;98865.25;5004802;28;19919;-76
2022/12/08 04:20:27;;;;;;;;;;;;;;;4.97;59.64;98840.13;5003456;28;20016;-76
2022/12/08 04:22:52;;;;;;;;;;;;;;;5.01;58.91;98840.94;5005056;28;19918;-77
2022/12/08 04:25:17;;;;;;;;;;;;;;;4.75;61.13;98833.59;5003360;28;19928;-77
2022/12/08 04:27:42;;;;;;;;;;;;;;;5.06;58.74;98843.41;5004610;28;19917;-76
2022/12/08 04:30:08;;;;;;;;;;;;;;;4.85;59.54;98835.16;5004897;28;19925;-76
2022/12/08 04:32:33;;;;;;;;;;;;;;;4.73;59.43;98842.97;5003655;28;19921;-76
2022/12/08 04:34:58;;;;;;;;;;;;;;;4.87;58.93;98845.34;5005050;28;20020;-76
2022/12/08 04:37:23;;;;;;;;;;;;;;;4.75;59.85;98838.69;5004694;28;20012;-76
2022/12/08 04:39:49;;;;;;;;;;;;;;;4.89;58.33;98847.03;5003239;28;19996;-76
2022/12/08 04:42:14;;;;;;;;;;;;;;;5.00;57.68;98850.28;5004745;28;20052;-76
2022/12/08 04:44:39;;;;;;;;;;;;;;;4.93;58.12;98843.56;5004852;28;19914;-76
2022/12/08 04:47:04;;;;;;;;;;;;;;;4.83;58.77;98844.53;5004356;28;19917;-75
2022/12/08 04:49:29;;;;;;;;;;;;;;;4.71;59.14;98837.88;5004663;28;19921;-75
2022/12/08 04:51:55;;;;;;;;;;;;;;;4.74;58.49;98848.03;5003760;28;19921;-75
2022/12/08 04:54:20;;;;;;;;;;;;;;;4.66;58.46;98846.44;5003930;28;20376;-75
2022/12/08 04:56:45;;;;;;;;;;;;;;;4.80;57.49;98862.44;5004706;28;20071;-75
2022/12/08 04:59:10;;;;;;;;;;;;;;;4.93;56.43;98878.47;5004061;28;20276;-76
2022/12/08 05:01:35;;;;;;;;;;;;;;;4.82;57.33;98866.66;5004427;28;20295;-76
2022/12/08 05:04:01;;;;;;;;;;;;;;;4.54;57.97;98861.00;5004484;28;20283;-76
2022/12/08 05:06:26;;;;;;;;;;;;;;;4.73;56.32;98871.84;5003033;28;19975;-75
2022/12/08 05:08:51;;;;;;;;;;;;;;;4.68;56.53;98875.34;5004447;28;19922;-75
2022/12/08 05:11:17;;;;;;;;;;;;;;;4.97;55.05;98891.19;5004858;28;19957;-75
2022/12/08 05:13:42;;;;;;;;;;;;;;;5.13;54.81;98890.97;5003265;28;19979;-75
2022/12/08 05:16:08;;;;;;;;;;;;;;;5.14;55.10;98885.03;5004001;28;19926;-74
2022/12/08 05:18:34;;;;;;;;;;;;;;;4.65;57.75;98857.50;4986567;28;19917;-75
2022/12/08 05:20:59;;;;;;;;;;;;;;;4.94;54.88;98880.97;5002989;28;19979;-75
2022/12/08 05:23:25;;;;;;;;;;;;;;;5.17;54.16;98897.75;5003001;28;19925;-75
2022/12/08 05:25:50;;;;;;;;;;;;;;;4.88;56.45;98870.88;5003282;28;19968;-75
2022/12/08 05:28:15;;;;;;;;;;;;;;;4.48;57.90;98855.13;5003816;28;19914;-75
2022/12/08 05:30:40;;;;;;;;;;;;;;;4.92;54.32;98881.88;5004466;28;19983;-75
2022/12/08 05:33:06;;;;;;;;;;;;;;;4.96;54.82;98884.38;5002013;28;19913;-76
2022/12/08 05:35:31;;;;;;;;;;;;;;;4.79;55.88;98876.91;5004433;28;19976;-75
2022/12/08 05:37:56;;;;;;;;;;;;;;;4.78;55.17;98874.34;5007023;28;19983;-75
2022/12/08 05:40:21;;;;;;;;;;;;;;;5.33;52.35;98903.50;5007809;28;19925;-76
2022/12/08 05:42:46;;;;;;;;;;;;;;;5.07;54.59;98875.75;4989730;28;20310;-76
2022/12/08 05:45:12;;;;;;;;;;;;;;;4.81;54.99;98870.09;5007000;28;19924;-74
2022/12/08 05:47:37;;;;;;;;;;;;;;;4.64;55.02;98876.22;5007645;28;19926;-75
2022/12/08 05:50:03;;;;;;;;;;;;;;;4.79;52.51;98886.28;5007991;28;19920;-76
2022/12/08 05:52:28;;;;;;;;;;;;;;;4.66;53.48;98884.72;5006133;28;19918;-75
2022/12/08 05:54:53;;;;;;;;;;;;;;;4.16;54.76;98882.59;5007259;28;19979;-76
2022/12/08 05:57:18;;;;;;;;;;;;;;;4.86;51.30;98927.84;5006780;28;19918;-76
2022/12/08 05:59:44;;;;;;;;;;;;;;;4.84;53.10;98921.94;5005297;28;19914;-76
2022/12/08 06:02:09;;;;;;;;;;;;;;;4.66;53.27;98912.75;5006321;28;19917;-76
2022/12/08 06:04:34;;;;;;;;;;;;;;;4.96;52.31;98927.75;5006390;28;19914;-76
2022/12/08 06:06:59;;;;;;;;;;;;;;;4.66;53.84;98917.88;5004809;28;19921;-76
2022/12/08 06:09:25;;;;;;;;;;;;;;;4.98;52.00;98923.47;5004578;28;19921;-76
2022/12/08 06:11:50;;;;;;;;;;;;;;;5.14;51.82;98930.97;5005549;28;19960;-76
2022/12/08 06:14:15;;;;;;;;;;;;;;;5.12;52.02;98919.94;5006231;28;19921;-76
2022/12/08 06:16:40;;;;;;;;;;;;;;;4.77;53.79;98898.19;5005396;28;19982;-76
2022/12/08 06:19:06;;;;;;;;;;;;;;;4.48;55.06;98883.16;5005304;28;19944;-77
2022/12/08 06:21:31;;;;;;;;;;;;;;;4.51;53.23;98896.72;5006949;28;19924;-76
2022/12/08 06:23:56;;;;;;;;;;;;;;;4.39;53.44;98907.03;5005463;28;19964;-76
2022/12/08 06:26:22;;;;;;;;;;;;;;;4.55;52.95;98926.44;5007282;28;19972;-76
2022/12/08 06:28:48;;;;;;;;;;;;;;;4.57;53.70;98929.81;5004972;28;20542;-76
2022/12/08 06:31:14;;;;;;;;;;;;;;;4.77;52.83;98944.13;5005443;28;19963;-75
2022/12/08 06:33:40;;;;;;;;;;;;;;;4.92;51.89;98954.16;5005365;28;19928;-75
2022/12/08 06:36:05;;;;;;;;;;;;;;;4.91;52.32;98941.44;5005728;28;19914;-76
2022/12/08 06:38:30;;;;;;;;;;;;;;;5.15;51.17;98950.50;4994402;28;19921;-75
2022/12/08 06:40:56;;;;;;;;;;;;;;;4.57;53.47;98919.63;5005323;28;20071;-75
2022/12/08 06:43:21;;;;;;;;;;;;;;;5.21;50.82;98953.00;5005153;28;19914;-76
2022/12/08 06:45:47;;;;;;;;;;;;;;;4.76;53.08;98922.84;5006685;28;19932;-75
2022/12/08 06:48:12;;;;;;;;;;;;;;;4.87;52.28;98925.28;5003149;28;19931;-76
2022/12/08 06:50:37;;;;;;;;;;;;;;;5.02;51.25;98935.34;5006523;28;19917;-76
2022/12/08 06:53:02;;;;;;;;;;;;;;;4.57;53.65;98896.66;5006128;28;19925;-76
2022/12/08 06:55:28;;;;;;;;;;;;;;;4.42;53.49;98901.06;5005120;28;19924;-76
2022/12/08 06:57:53;;;;;;;;;;;;;;;4.53;53.23;98925.59;5006278;28;19917;-76
2022/12/08 07:00:18;;;;;;;;;;;;;;;4.34;53.69;98924.09;5005703;28;19909;-77
2022/12/08 07:02:43;;;;;;;;;;;;;;;4.85;52.43;98965.28;5005794;28;19928;-76
2022/12/08 07:05:09;;;;;;;;;;;;;;;4.73;53.43;98957.75;5005752;28;19913;-76
2022/12/08 07:07:34;;;;;;;;;;;;;;;4.69;53.61;98950.97;5007157;28;20032;-75
2022/12/08 07:09:59;;;;;;;;;;;;;;;4.85;52.40;98957.63;5006244;28;19975;-76
2022/12/08 07:12:24;;;;;;;;;;;;;;;4.90;52.30;98945.66;5007194;28;19914;-76
2022/12/08 07:14:49;;;;;;;;;;;;;;;4.63;53.26;98936.59;5006116;28;19921;-76
2022/12/08 07:17:15;;;;;;;;;;;;;;;4.30;54.56;98922.41;5005552;28;19918;-76
2022/12/08 07:19:40;;;;;;;;;;;;;;;4.54;52.57;98946.88;5006625;28;20432;-76
2022/12/08 07:22:05;;;;;;;;;;;;;;;4.53;53.15;98960.47;5005949;28;20392;-76
2022/12/08 07:24:30;;;;;;;;;;;;;;;4.55;54.17;98959.59;5007010;28;20421;-76
2022/12/08 07:26:56;;;;;;;;;;;;;;;4.40;54.18;98954.63;5005663;28;20303;-75
2022/12/08 07:29:21;;;;;;;;;;;;;;;4.59;52.65;98979.13;5008067;28;20368;-76
2022/12/08 07:31:46;;;;;;;;;;;;;;;4.31;54.31;98962.34;5007255;28;20394;-76
2022/12/08 07:34:12;;;;;;;;;;;;;;;4.65;52.69;98992.69;5008483;28;19917;-75
2022/12/08 07:36:37;;;;;;;;;;;;;;;4.27;54.44;98983.63;5008388;28;19924;-76
2022/12/08 07:39:02;;;;;;;;;;;;;;;4.31;53.94;98992.91;5007834;28;19940;-76
2022/12/08 07:41:27;;;;;;;;;;;;;;;4.54;53.88;99019.13;5007600;28;19918;-75
2022/12/08 07:43:53;;;;;;;;;;;;;;;4.38;55.13;99017.53;5007096;28;19984;-76
2022/12/08 07:46:19;;;;;;;;;;;;;;;4.14;56.52;99009.19;5006820;28;19913;-75
2022/12/08 07:48:45;;;;;;;;;;;;;;;4.40;56.06;99031.09;5003769;28;20021;-74
2022/12/08 07:51:11;;;;;;;;;;;;;;;4.38;56.71;99043.88;5005328;28;20020;-77
2022/12/08 07:53:38;;;;;;;;;;;;;;;4.43;57.01;99043.84;5003861;28;19926;-75
2022/12/08 07:56:04;;;;;;;;;;;;;;;4.55;56.66;99051.41;5003975;28;19968;-74
2022/12/08 07:58:29;;;;;;;;;;;;;;;4.38;57.44;99037.94;5003281;28;19964;-74
2022/12/08 08:00:55;;;;;;;;;;;;;;;4.66;56.79;99063.25;5005254;28;19953;-75
2022/12/08 08:03:21;;;;;;;;;;;;;;;4.49;57.87;99043.78;5004207;28;19914;-74
2022/12/08 08:05:48;;;;;;;;;;;;;;;4.12;58.84;99026.19;5005358;28;20391;-74
2022/12/08 08:08:13;;;;;;;;;;;;;;;3.98;58.51;99025.41;5005333;28;20354;-77
2022/12/08 08:10:38;;;;;;;;;;;;;;;4.31;59.23;99061.75;5005849;28;19917;-77
2022/12/08 08:13:03;;;;;;;;;;;;;;;4.34;59.90;99074.50;5006087;28;20589;-77
2022/12/08 08:15:29;;;;;;;;;;;;;;;4.07;61.51;99055.09;5006849;28;20414;-76
2022/12/08 08:17:54;;;;;;;;;;;;;;;4.37;61.59;99082.97;5006656;28;20795;-76
2022/12/08 08:20:20;;;;;;;;;;;;;;;4.14;62.86;99087.34;5005552;28;20352;-77
2022/12/08 08:22:46;;;;;;;;;;;;;;;4.13;63.37;99089.06;5006932;28;19921;-76
2022/12/08 08:25:11;;;;;;;;;;;;;;;4.12;65.66;99106.88;5005456;28;20568;-76
2022/12/08 08:27:36;;;;;;;;;;;;;;;3.95;68.40;99100.16;5005651;28;19917;-77
2022/12/08 08:30:02;;;;;;;;;;;;;;;4.05;70.82;99116.25;5007556;28;20356;-77
2022/12/08 08:32:27;;;;;;;;;;;;;;;4.08;72.56;99131.56;4997575;28;19922;-77
2022/12/08 08:34:52;;;;;;;;;;;;;;;4.07;74.33;99145.13;5006388;28;19957;-77
2022/12/08 08:37:18;;;;;;;;;;;;;;;4.28;75.05;99158.66;5006584;28;19925;-76
2022/12/08 08:39:43;;;;;;;;;;;;;;;4.10;76.24;99154.47;5004509;28;19917;-76
2022/12/08 08:42:08;;;;;;;;;;;;;;;4.24;76.58;99170.56;5006257;28;20000;-77
2022/12/08 08:44:33;;;;;;;;;;;;;;;3.81;77.38;99152.00;5005073;28;20521;-74
2022/12/08 08:46:58;;;;;;;;;;;;;;;4.13;78.68;99177.41;5004497;28;19918;-74
2022/12/08 08:49:24;;;;;;;;;;;;;;;4.11;80.30;99184.22;5003772;28;19980;-74
2022/12/08 08:51:49;;;;;;;;;;;;;;;3.48;82.81;99166.50;5004077;28;20036;-74
2022/12/08 08:54:14;;;;;;;;;;;;;;;3.88;82.92;99197.00;5002459;28;19972;-74
2022/12/08 08:56:39;;;;;;;;;;;;;;;3.58;85.35;99191.13;5002938;28;19914;-75
2022/12/08 08:59:05;;;;;;;;;;;;;;;3.75;86.16;99214.84;5002662;28;19986;-74
2022/12/08 09:01:30;;;;;;;;;;;;;;;3.92;86.51;99247.09;5004754;28;20510;-74
2022/12/08 09:03:55;;;;;;;;;;;;;;;3.61;87.24;99238.63;5004271;28;19924;-74
2022/12/08 09:06:21;;;;;;;;;;;;;;;3.94;86.89;99270.88;5003268;28;19917;-74
2022/12/08 09:08:46;;;;;;;;;;;;;;;4.22;86.89;99291.22;5002791;28;19917;-74
2022/12/08 09:11:11;;;;;;;;;;;;;;;4.12;87.03;99286.13;5003525;28;19918;-74
2022/12/08 09:13:37;;;;;;;;;;;;;;;3.71;86.84;99253.91;5007682;28;19937;-74
2022/12/08 09:16:03;;;;;;;;;;;;;;;3.70;87.22;99254.75;5008193;28;19917;-74
2022/12/08 09:18:28;;;;;;;;;;;;;;;3.82;86.62;99271.72;5006577;28;20029;-75
2022/12/08 09:20:53;;;;;;;;;;;;;;;3.97;86.41;99276.00;5008265;28;20007;-74
2022/12/08 09:23:18;;;;;;;;;;;;;;;4.32;85.74;99292.91;5007580;28;20034;-74
2022/12/08 09:25:44;;;;;;;;;;;;;;;4.08;86.04;99269.19;5007459;28;19917;-74
2022/12/08 09:28:09;;;;;;;;;;;;;;;4.44;84.30;99290.31;5007311;28;19953;-74
2022/12/08 09:30:34;;;;;;;;;;;;;;;4.28;83.73;99270.81;5005256;28;19917;-74
2022/12/08 09:33:00;;;;;;;;;;;;;;;4.61;82.75;99285.19;5006179;28;19925;-74
2022/12/08 09:35:25;;;;;;;;;;;;;;;4.35;82.08;99257.22;5006443;28;19984;-74
2022/12/08 09:37:50;;;;;;;;;;;;;;;4.17;81.66;99242.81;5006131;28;19917;-74
2022/12/08 09:40:16;;;;;;;;;;;;;;;4.09;81.13;99229.25;5006212;28;19917;-74
2022/12/08 09:42:43;;;;;;;;;;;;;;;4.58;79.69;99265.66;5006317;28;19924;-74
2022/12/08 09:45:12;;;;;;;;;;;;;;;4.17;80.65;99218.19;5006332;28;19924;-74
2022/12/08 09:47:41;;;;;;;;;;;;;;;4.40;79.75;99230.84;5007783;28;19918;-74
2022/12/08 09:50:28;;;;;;;;;;;;;;;4.61;79.14;99241.84;5007142;28;20462;-74
2022/12/08 09:53:12;;;;;;;;;;;;;;;4.36;78.15;99220.69;5006402;28;19960;-74
2022/12/08 09:55:56;;;;;;;;;;;;;;;4.63;78.09;99240.13;5007705;28;19929;-74
2022/12/08 09:58:40;;;;;;;;;;;;;;;4.27;77.53;99201.16;5006993;28;19925;-74
2022/12/08 10:01:08;;;;;;;;;;;;;;;4.05;77.60;99182.53;5007598;28;20288;-74
2022/12/08 10:03:33;;;;;;;;;;;;;;;4.12;77.94;99193.53;5006124;28;19913;-74
2022/12/08 10:06:33;;;;;;;;;;;;;;;4.48;77.05;99218.06;5007327;28;20502;-74
2022/12/08 10:09:18;;;;;;;;;;;;;;;4.48;76.38;99218.06;4984368;28;19913;-74
2022/12/08 10:11:45;;;;;;;;;;;;;;;4.27;76.12;99192.66;5005169;28;19914;-74
2022/12/08 10:14:28;;;;;;;;;;;;;;;4.49;76.39;99201.91;5005264;28;19926;-74
2022/12/08 10:16:56;;;;;;;;;;;;;;;4.71;73.82;99206.91;5005454;28;19928;-74
2022/12/08 10:19:22;;;;;;;;;;;;;;;4.24;74.04;99173.09;5005342;28;19940;-74
2022/12/08 10:21:48;;;;;;;;;;;;;;;4.44;72.85;99174.75;5005223;28;19917;-74
2022/12/08 10:24:30;;;;;;;;;;;;;;;4.05;74.42;99151.94;5005227;28;19925;-74
2022/12/08 10:26:56;;;;;;;;;;;;;;;4.08;76.08;99162.16;5004791;28;20364;-74
2022/12/08 10:29:21;;;;;;;;;;;;;;;4.50;75.69;99188.31;5005379;28;19928;-74
2022/12/08 10:31:47;;;;;;;;;;;;;;;4.26;76.38;99180.75;5006698;28;19917;-74
2022/12/08 10:34:13;;;;;;;;;;;;;;;4.09;76.29;99168.06;5005295;28;19921;-74
2022/12/08 10:36:47;;;;;;;;;;;;;;;4.40;76.58;99186.63;5006389;28;19913;-74
2022/12/08 10:39:31;;;;;;;;;;;;;;;4.24;76.71;99182.47;5006191;28;19975;-74
2022/12/08 10:42:00;;;;;;;;;;;;;;;4.30;77.29;99188.38;5005156;28;19920;-74
2022/12/08 10:44:26;;;;;;;;;;;;;;;4.31;76.64;99189.22;5004839;28;19922;-74
2022/12/08 10:46:51;;;;;;;;;;;;;;;4.17;77.44;99174.84;4988686;28;19937;-74
2022/12/08 10:49:23;;;;;;;;;;;;;;;4.17;76.96;99179.94;5006024;28;19979;-73
2022/12/08 10:51:48;;;;;;;;;;;;;;;4.29;77.37;99185.81;5004950;28;19917;-74
2022/12/08 10:54:27;;;;;;;;;;;;;;;4.02;78.27;99167.25;5005987;28;19921;-74
2022/12/08 10:56:56;;;;;;;;;;;;;;;3.83;78.62;99160.50;5005867;28;19968;-74
2022/12/08 10:59:22;;;;;;;;;;;;;;;4.08;79.94;99185.06;5004704;28;20395;-74
2022/12/08 11:01:48;;;;;;;;;;;;;;;4.29;79.69;99207.09;5004715;28;20076;-74
2022/12/08 11:04:20;;;;;;;;;;;;;;;4.09;80.37;99199.50;5004621;28;20400;-73
2022/12/08 11:06:45;;;;;;;;;;;;;;;4.06;80.80;99189.31;5006014;28;19928;-73
2022/12/08 11:09:13;;;;;;;;;;;;;;;3.99;81.31;99192.72;5004121;28;19918;-74
2022/12/08 11:11:52;;;;;;;;;;;;;;;3.91;82.01;99195.28;5006213;28;19914;-74
2022/12/08 11:14:18;;;;;;;;;;;;;;;4.00;82.67;99204.63;5005604;28;19917;-74
2022/12/08 11:16:43;;;;;;;;;;;;;;;4.02;82.19;99215.66;5004820;28;19971;-74
2022/12/08 11:19:13;;;;;;;;;;;;;;;3.70;83.56;99196.19;5003775;28;19933;-74
2022/12/08 11:21:38;;;;;;;;;;;;;;;3.79;83.42;99205.50;5003633;28;20004;-74
2022/12/08 11:24:13;;;;;;;;;;;;;;;3.74;84.75;99207.19;5004143;28;20003;-74
2022/12/08 11:26:38;;;;;;;;;;;;;;;3.58;85.72;99206.38;5005130;28;19932;-74
2022/12/08 11:29:03;;;;;;;;;;;;;;;4.08;85.17;99243.69;5003906;28;19914;-74
2022/12/08 11:31:37;;;;;;;;;;;;;;;4.22;85.22;99246.22;5005163;28;19935;-74
2022/12/08 11:34:02;;;;;;;;;;;;;;;3.89;84.96;99231.81;5004758;28;19925;-74
2022/12/08 11:36:28;;;;;;;;;;;;;;;4.58;83.75;99260.56;5005589;28;19938;-74
2022/12/08 11:38:55;;;;;;;;;;;;;;;4.54;81.84;99248.66;5003905;28;19944;-74
2022/12/08 11:41:21;;;;;;;;;;;;;;;4.52;80.32;99224.84;5004299;28;19983;-74
2022/12/08 11:43:53;;;;;;;;;;;;;;;4.10;79.78;99177.41;5004157;28;19924;-74
2022/12/08 11:46:44;;;;;;;;;;;;;;;4.19;79.29;99179.94;5005206;28;20469;-74
2022/12/08 11:49:10;;;;;;;;;;;;;;;4.52;78.10;99193.41;5003099;28;19921;-74
2022/12/08 11:51:54;;;;;;;;;;;;;;;4.29;77.70;99180.72;5003952;28;19964;-74
2022/12/08 11:54:19;;;;;;;;;;;;;;;4.27;76.43;99167.16;5004408;28;19936;-74
2022/12/08 11:56:48;;;;;;;;;;;;;;;3.94;77.75;99151.13;5005637;28;19917;-74
2022/12/08 11:59:13;;;;;;;;;;;;;;;4.14;77.31;99162.09;5003486;28;20007;-74
2022/12/08 12:01:38;;;;;;;;;;;;;;;4.22;76.02;99158.66;5003843;28;19948;-74
2022/12/08 12:04:06;;;;;;;;;;;;;;;3.85;76.75;99128.22;5004429;28;19936;-74
2022/12/08 12:06:37;;;;;;;;;;;;;;;4.32;75.98;99162.91;5005073;28;19983;-73
2022/12/08 12:09:14;;;;;;;;;;;;;;;4.64;73.35;99172.94;5004654;28;20009;-73
2022/12/08 12:14:31;;;;;;;;;;;;;;;4.10;71.47;99118.78;5004874;28;19932;-73
2022/12/08 12:17:01;;;;;;;;;;;;;;;4.27;71.84;99123.84;5003215;28;19979;-73
2022/12/08 12:19:26;;;;;;;;;;;;;;;4.54;69.99;99141.53;4993352;28;19917;-74
2022/12/08 12:21:53;;;;;;;;;;;;;;;4.23;69.26;99107.69;5002729;28;19924;-74
2022/12/08 12:24:19;;;;;;;;;;;;;;;4.11;67.95;99100.13;5003641;28;19956;-74
2022/12/08 12:26:50;;;;;;;;;;;;;;;4.58;66.36;99119.41;4986771;28;20456;-73
2022/12/08 12:29:16;;;;;;;;;;;;;;;4.63;62.48;99102.38;5004642;28;19922;-73
2022/12/08 12:31:42;;;;;;;;;;;;;;;4.52;61.97;99076.09;5002899;28;19922;-73
2022/12/08 12:34:10;;;;;;;;;;;;;;;4.56;60.74;99065.00;5003270;28;19929;-74
2022/12/08 12:36:54;;;;;;;;;;;;;;;4.66;59.95;99058.16;5002962;28;19925;-74
2022/12/08 12:39:21;;;;;;;;;;;;;;;4.90;58.02;99062.19;5004357;28;20401;-74
2022/12/08 12:41:48;;;;;;;;;;;;;;;4.58;57.95;99028.44;5002638;28;19917;-74
2022/12/08 12:44:13;;;;;;;;;;;;;;;4.26;58.68;98999.75;4999359;28;20066;-74
2022/12/08 12:46:47;;;;;;;;;;;;;;;4.09;59.77;98995.63;5000713;28;20012;-74
2022/12/08 12:49:31;;;;;;;;;;;;;;;4.20;59.86;99013.41;5007572;28;20623;-74
2022/12/08 12:51:56;;;;;;;;;;;;;;;4.26;59.58;99020.16;5007151;28;19917;-74
2022/12/08 12:54:23;;;;;;;;;;;;;;;4.12;59.94;99015.97;5008097;28;19925;-74
2022/12/08 12:56:55;;;;;;;;;;;;;;;4.10;59.38;99011.75;5007377;28;19921;-73
2022/12/08 12:59:35;;;;;;;;;;;;;;;4.37;58.18;99031.13;5007183;28;20001;-74
2022/12/08 13:02:01;;;;;;;;;;;;;;;4.22;57.99;99016.78;5006608;28;19972;-73
2022/12/08 13:04:34;;;;;;;;;;;;;;;4.13;58.12;98994.75;5006813;28;19960;-73